createdAt,value
2022-08-31T00:02:17.873Z,100675.09
2022-08-31T00:04:44.328Z,100678.19
2022-08-31T00:07:10.558Z,100708.31
2022-08-31T00:09:36.715Z,100722.72
2022-08-31T00:12:03.086Z,100726.09
2022-08-31T00:14:29.274Z,100725.44
2022-08-31T00:16:55.509Z,100732.47
2022-08-31T00:19:21.767Z,100734.72
2022-08-31T00:21:47.944Z,100725.66
2022-08-31T00:24:14.118Z,100731.53
2022-08-31T00:26:40.336Z,100736.84
2022-08-31T00:29:06.534Z,100743.06
2022-08-31T00:31:32.713Z,100744.59
2022-08-31T00:33:58.896Z,100731.75
2022-08-31T00:36:25.140Z,100731.31
2022-08-31T00:38:51.432Z,100741.97
2022-08-31T00:41:17.597Z,100746.44
2022-08-31T00:43:43.794Z,100750.53
2022-08-31T00:46:10.012Z,100744.63
2022-08-31T00:48:36.218Z,100740.53
2022-08-31T00:51:02.375Z,100744.19
2022-08-31T00:53:28.558Z,100746.56
2022-08-31T00:55:54.757Z,100747.00
2022-08-31T00:58:21.022Z,100746.28
2022-08-31T01:00:47.264Z,100743.06
2022-08-31T01:03:13.556Z,100748.09
2022-08-31T01:05:39.768Z,100747.81
2022-08-31T01:08:05.961Z,100747.25
2022-08-31T01:10:32.164Z,100750.59
2022-08-31T01:12:58.302Z,100748.63
2022-08-31T01:15:24.486Z,100749.06
2022-08-31T01:17:50.665Z,100752.41
2022-08-31T01:20:16.838Z,100753.38
2022-08-31T01:22:43.017Z,100753.66
2022-08-31T01:25:09.288Z,100765.66
2022-08-31T01:27:35.439Z,100763.81
2022-08-31T01:30:01.733Z,100765.75
2022-08-31T01:32:29.040Z,100767.22
2022-08-31T01:34:55.205Z,100769.22
2022-08-31T01:37:29.400Z,100771.53
2022-08-31T01:39:56.568Z,100770.78
2022-08-31T01:42:22.752Z,100777.25
2022-08-31T01:44:59.084Z,100772.22
2022-08-31T01:47:25.235Z,100772.63
2022-08-31T01:49:51.427Z,100774.13
2022-08-31T01:52:21.525Z,100774.88
2022-08-31T01:54:50.670Z,100777.34
2022-08-31T01:57:16.821Z,100774.75
2022-08-31T01:59:47.957Z,100770.06
2022-08-31T02:02:14.137Z,100770.19
2022-08-31T02:04:40.359Z,100766.91
2022-08-31T02:07:06.571Z,100770.53
2022-08-31T02:09:32.746Z,100774.00
2022-08-31T02:11:58.923Z,100772.97
2022-08-31T02:14:25.238Z,100759.50
2022-08-31T02:16:51.405Z,100768.16
2022-08-31T02:19:17.590Z,100765.06
2022-08-31T02:21:43.763Z,100766.16
2022-08-31T02:24:09.920Z,100771.72
2022-08-31T02:26:36.099Z,100767.63
2022-08-31T02:29:02.254Z,100768.72
2022-08-31T02:31:28.419Z,100775.00
2022-08-31T02:33:54.630Z,100775.50
2022-08-31T02:36:20.791Z,100772.59
2022-08-31T02:38:46.961Z,100769.09
2022-08-31T02:41:13.142Z,100776.09
2022-08-31T02:43:39.334Z,100773.94
2022-08-31T02:46:05.572Z,100771.41
2022-08-31T02:48:31.833Z,100764.44
2022-08-31T02:50:57.971Z,100769.63
2022-08-31T02:53:24.128Z,100775.97
2022-08-31T02:55:50.326Z,100769.47
2022-08-31T02:58:19.557Z,100779.22
2022-08-31T03:00:48.223Z,100770.69
2022-08-31T03:03:14.432Z,100777.22
2022-08-31T03:05:40.641Z,100784.31
2022-08-31T03:08:06.823Z,100775.66
2022-08-31T03:10:33.027Z,100781.78
2022-08-31T03:12:59.206Z,100779.53
2022-08-31T03:15:25.397Z,100775.19
2022-08-31T03:17:51.582Z,100778.69
2022-08-31T03:20:17.729Z,100782.03
2022-08-31T03:22:45.774Z,100779.28
2022-08-31T03:25:12.269Z,100775.91
2022-08-31T03:27:38.424Z,100777.81
2022-08-31T03:30:04.613Z,100778.91
2022-08-31T03:32:30.811Z,100785.88
2022-08-31T03:34:56.963Z,100779.84
2022-08-31T03:37:24.218Z,100775.41
2022-08-31T03:39:50.404Z,100773.13
2022-08-31T03:42:16.592Z,100777.56
2022-08-31T03:44:42.807Z,100780.22
2022-08-31T03:47:08.981Z,100787.44
2022-08-31T03:49:35.197Z,100783.25
2022-08-31T03:52:01.381Z,100786.84
2022-08-31T03:54:27.548Z,100780.59
2022-08-31T03:56:53.715Z,100784.31
2022-08-31T03:59:19.911Z,100789.00
2022-08-31T04:01:46.128Z,100788.19
2022-08-31T04:04:12.292Z,100799.50
2022-08-31T04:06:38.484Z,100796.88
2022-08-31T04:09:04.647Z,100797.94
2022-08-31T04:11:44.563Z,100799.59
2022-08-31T04:14:11.836Z,100799.59
2022-08-31T04:16:41.635Z,100802.50
2022-08-31T04:19:07.966Z,100801.69
2022-08-31T04:21:34.357Z,100799.97
2022-08-31T04:24:00.673Z,100794.56
2022-08-31T04:26:26.858Z,100803.47
2022-08-31T04:28:53.055Z,100801.69
2022-08-31T04:31:19.263Z,100792.03
2022-08-31T04:33:45.463Z,100797.34
2022-08-31T04:36:11.623Z,100800.09
2022-08-31T04:38:37.822Z,100797.84
2022-08-31T04:41:03.992Z,100800.13
2022-08-31T04:43:30.215Z,100799.28
2022-08-31T04:45:56.442Z,100800.13
2022-08-31T04:48:22.684Z,100800.72
2022-08-31T04:50:48.860Z,100796.13
2022-08-31T04:53:15.093Z,100805.78
2022-08-31T04:55:41.380Z,100811.19
2022-08-31T04:58:07.558Z,100810.59
2022-08-31T05:00:33.727Z,100810.72
2022-08-31T05:02:59.962Z,100814.31
2022-08-31T05:05:26.159Z,100810.22
2022-08-31T05:07:52.318Z,100808.78
2022-08-31T05:10:18.517Z,100820.47
2022-08-31T05:12:44.672Z,100820.09
2022-08-31T05:15:10.835Z,100815.50
2022-08-31T05:17:37.032Z,100821.53
2022-08-31T05:20:03.196Z,100821.53
2022-08-31T05:22:29.358Z,100818.75
2022-08-31T05:24:55.568Z,100807.34
2022-08-31T05:27:21.755Z,100812.41
2022-08-31T05:29:47.914Z,100805.06
2022-08-31T05:32:14.112Z,100812.03
2022-08-31T05:34:40.302Z,100818.06
2022-08-31T05:37:06.482Z,100810.94
2022-08-31T05:39:32.642Z,100823.69
2022-08-31T05:41:58.840Z,100829.94
2022-08-31T05:44:28.846Z,100831.78
2022-08-31T05:47:03.332Z,100837.88
2022-08-31T05:49:30.453Z,100848.47
2022-08-31T05:51:58.531Z,100854.16
2022-08-31T05:54:24.719Z,100857.16
2022-08-31T05:56:50.867Z,100854.38
2022-08-31T05:59:17.080Z,100854.88
2022-08-31T06:01:43.293Z,100856.91
2022-08-31T06:04:09.525Z,100843.28
2022-08-31T06:06:35.686Z,100847.28
2022-08-31T06:09:02.078Z,100847.03
2022-08-31T06:14:08.321Z,100858.34
2022-08-31T06:16:34.565Z,100863.91
2022-08-31T06:19:00.800Z,100865.09
2022-08-31T06:21:27.011Z,100877.28
2022-08-31T06:23:53.188Z,100870.19
2022-08-31T06:26:19.372Z,100873.78
2022-08-31T06:28:45.560Z,100879.19
2022-08-31T06:31:11.876Z,100877.34
2022-08-31T06:33:38.140Z,100882.66
2022-08-31T06:36:04.328Z,100885.53
2022-08-31T06:38:32.050Z,100889.63
2022-08-31T06:40:59.172Z,100880.72
2022-08-31T06:43:25.345Z,100882.31
2022-08-31T06:45:51.611Z,100884.09
2022-08-31T06:48:17.846Z,100880.22
2022-08-31T06:50:44.041Z,100885.78
2022-08-31T06:53:10.274Z,100885.44
2022-08-31T06:55:36.475Z,100887.22
2022-08-31T06:58:02.655Z,100887.00
2022-08-31T07:00:28.960Z,100892.28
2022-08-31T07:02:57.357Z,100892.28
2022-08-31T07:05:24.546Z,100898.91
2022-08-31T07:07:51.031Z,100898.91
2022-08-31T07:10:17.225Z,100891.94
2022-08-31T07:12:43.382Z,100902.78
2022-08-31T07:15:09.563Z,100902.88
2022-08-31T07:17:35.710Z,100902.03
2022-08-31T07:20:01.884Z,100914.78
2022-08-31T07:22:28.032Z,100917.06
2022-08-31T07:24:54.212Z,100923.59
2022-08-31T07:27:20.417Z,100932.91
2022-08-31T07:29:46.594Z,100936.75
2022-08-31T07:32:12.743Z,100935.63
2022-08-31T07:34:38.930Z,100936.59
2022-08-31T07:39:55.701Z,100939.44
2022-08-31T07:42:23.000Z,100937.03
2022-08-31T07:44:53.121Z,100948.91
2022-08-31T07:47:19.926Z,100948.41
2022-08-31T07:49:48.193Z,100955.47
2022-08-31T07:52:18.108Z,100958.25
2022-08-31T07:54:44.335Z,100958.75
2022-08-31T07:57:11.948Z,100975.34
2022-08-31T07:59:38.289Z,100976.13
2022-08-31T08:02:04.587Z,100982.25
2022-08-31T08:04:53.477Z,100982.25
2022-08-31T08:07:17.843Z,100985.19
2022-08-31T08:09:47.873Z,100988.50
2022-08-31T08:15:11.306Z,100972.09
2022-08-31T08:23:18.511Z,100982.41
2022-08-31T08:25:56.302Z,101000.88
2022-08-31T08:28:40.909Z,101002.34
2022-08-31T08:31:07.529Z,100997.59
2022-08-31T08:33:33.960Z,101002.88
2022-08-31T08:36:00.297Z,101011.66
2022-08-31T08:38:30.923Z,101006.38
2022-08-31T08:40:57.227Z,101011.72
2022-08-31T08:43:26.533Z,101006.72
2022-08-31T08:45:55.209Z,101012.69
2022-08-31T08:48:21.414Z,101008.59
2022-08-31T08:50:47.693Z,101013.06
2022-08-31T08:53:14.003Z,101010.25
2022-08-31T08:55:40.251Z,101011.22
2022-08-31T08:58:06.438Z,101019.69
2022-08-31T09:00:32.631Z,101025.69
2022-08-31T09:02:59.700Z,101026.94
2022-08-31T09:05:26.008Z,101033.72
2022-08-31T09:07:52.195Z,101028.06
2022-08-31T09:10:22.060Z,101031.09
2022-08-31T09:12:54.333Z,101027.81
2022-08-31T09:15:20.605Z,101020.88
2022-08-31T09:17:46.834Z,101023.41
2022-08-31T09:20:13.107Z,101026.44
2022-08-31T09:22:39.484Z,101031.72
2022-08-31T09:25:05.740Z,101030.88
2022-08-31T09:27:32.124Z,101024.25
2022-08-31T09:29:58.368Z,101025.94
2022-08-31T09:32:24.838Z,101018.56
2022-08-31T09:34:52.684Z,101027.63
2022-08-31T09:37:18.954Z,101026.59
2022-08-31T09:39:45.174Z,101015.94
2022-08-31T09:42:11.431Z,101024.09
2022-08-31T09:44:38.368Z,101025.69
2022-08-31T09:47:04.573Z,101028.72
2022-08-31T09:49:30.861Z,101021.06
2022-08-31T09:51:57.322Z,101017.75
2022-08-31T09:54:23.594Z,101017.94
2022-08-31T09:56:49.869Z,101016.06
2022-08-31T09:59:16.091Z,101012.19
2022-08-31T10:01:42.413Z,101013.22
2022-08-31T10:04:08.675Z,101016.41
2022-08-31T10:06:34.922Z,101011.75
2022-08-31T10:09:01.183Z,101012.41
2022-08-31T10:11:27.445Z,101011.88
2022-08-31T10:13:53.684Z,101008.31
2022-08-31T10:16:19.974Z,101010.00
2022-08-31T10:18:46.265Z,101011.91
2022-08-31T10:21:12.536Z,101008.53
2022-08-31T10:23:38.813Z,100998.31
2022-08-31T10:26:05.103Z,101002.09
2022-08-31T10:28:31.452Z,101011.19
2022-08-31T10:30:57.819Z,101008.84
2022-08-31T10:33:24.058Z,101011.72
2022-08-31T10:35:50.298Z,101014.25
2022-08-31T10:38:19.961Z,101008.78
2022-08-31T10:40:46.662Z,101003.41
2022-08-31T10:43:13.017Z,101012.06
2022-08-31T10:45:39.282Z,101012.66
2022-08-31T10:48:05.549Z,101012.53
2022-08-31T10:50:31.796Z,101013.19
2022-08-31T10:53:01.967Z,101014.56
2022-08-31T10:55:28.949Z,101008.34
2022-08-31T10:57:55.198Z,101010.59
2022-08-31T11:00:21.509Z,101014.88
2022-08-31T11:02:47.771Z,101008.00
2022-08-31T11:05:14.060Z,101012.13
2022-08-31T11:07:40.311Z,101012.91
2022-08-31T11:10:06.547Z,101012.06
2022-08-31T11:12:32.836Z,101008.25
2022-08-31T11:15:00.284Z,101005.53
2022-08-31T11:17:26.547Z,101008.66
2022-08-31T11:19:52.808Z,101011.41
2022-08-31T11:22:19.125Z,101006.28
2022-08-31T11:24:45.362Z,101008.34
2022-08-31T11:27:11.613Z,101006.56
2022-08-31T11:29:37.890Z,100998.28
2022-08-31T11:32:04.200Z,100993.44
2022-08-31T11:34:30.613Z,101002.50
2022-08-31T11:36:56.891Z,100999.97
2022-08-31T11:39:23.181Z,101001.78
2022-08-31T11:41:49.586Z,101001.03
2022-08-31T11:44:15.869Z,100998.16
2022-08-31T11:46:42.208Z,101001.41
2022-08-31T11:49:08.853Z,101008.38
2022-08-31T11:51:40.699Z,101000.81
2022-08-31T11:54:07.576Z,100994.56
2022-08-31T11:56:33.855Z,101001.41
2022-08-31T11:59:00.152Z,101003.69
2022-08-31T12:01:26.406Z,101008.38
2022-08-31T12:03:52.627Z,101000.44
2022-08-31T12:06:19.392Z,101001.03
2022-08-31T12:08:48.728Z,101006.09
2022-08-31T12:11:16.193Z,101006.59
2022-08-31T12:16:53.555Z,100999.69
2022-08-31T12:19:19.842Z,100998.97
2022-08-31T12:21:46.083Z,100998.84
2022-08-31T12:24:15.426Z,101000.19
2022-08-31T12:26:45.644Z,100985.97
2022-08-31T12:29:11.977Z,100996.22
2022-08-31T12:31:38.290Z,100982.47
2022-08-31T12:34:04.585Z,100985.69
2022-08-31T12:36:30.824Z,100984.72
2022-08-31T12:38:57.251Z,100982.69
2022-08-31T12:41:25.487Z,100986.34
2022-08-31T12:43:51.829Z,100974.97
2022-08-31T12:46:18.134Z,100976.28
2022-08-31T12:48:44.462Z,100984.50
2022-08-31T12:51:10.688Z,100978.34
2022-08-31T12:53:36.936Z,100975.69
2022-08-31T12:56:03.118Z,100971.13
2022-08-31T12:58:29.309Z,100970.53
2022-08-31T13:00:55.599Z,100960.38
2022-08-31T13:03:21.945Z,100954.78
2022-08-31T13:05:48.640Z,100956.50
2022-08-31T13:08:14.846Z,100949.56
2022-08-31T13:10:41.056Z,100955.78
2022-08-31T13:13:07.488Z,100934.94
2022-08-31T13:15:37.382Z,100934.00
2022-08-31T13:18:05.785Z,100929.53
2022-08-31T13:20:32.123Z,100932.66
2022-08-31T13:22:58.395Z,100935.88
2022-08-31T13:25:24.637Z,100933.16
2022-08-31T13:27:50.813Z,100930.03
2022-08-31T13:30:17.031Z,100923.94
2022-08-31T13:32:43.453Z,100930.03
2022-08-31T13:35:09.601Z,100926.88
2022-08-31T13:37:35.807Z,100926.06
2022-08-31T13:40:01.987Z,100920.31
2022-08-31T13:42:28.241Z,100926.34
2022-08-31T13:44:54.406Z,100921.63
2022-08-31T13:47:20.561Z,100919.69
2022-08-31T13:49:46.748Z,100915.91
2022-08-31T13:52:12.916Z,100916.00
2022-08-31T13:54:39.067Z,100911.38
2022-08-31T13:57:05.269Z,100912.09
2022-08-31T13:59:31.434Z,100918.69
2022-08-31T14:01:57.620Z,100912.25
2022-08-31T14:04:23.794Z,100911.31
2022-08-31T14:06:50.018Z,100908.16
2022-08-31T14:09:17.293Z,100902.91
2022-08-31T14:11:43.731Z,100901.91
2022-08-31T14:14:12.197Z,100907.34
2022-08-31T14:16:38.505Z,100896.16
2022-08-31T14:19:04.741Z,100902.50
2022-08-31T14:21:30.942Z,100902.50
2022-08-31T14:23:57.121Z,100899.75
2022-08-31T14:26:23.294Z,100901.69
2022-08-31T14:28:49.467Z,100900.34
2022-08-31T14:31:15.712Z,100893.69
2022-08-31T14:33:42.007Z,100893.13
2022-08-31T14:36:08.159Z,100883.50
2022-08-31T14:38:34.352Z,100880.84
2022-08-31T14:41:00.570Z,100879.44
2022-08-31T14:43:26.778Z,100881.53
2022-08-31T14:45:53.044Z,100879.84
2022-08-31T14:48:19.413Z,100872.84
2022-08-31T14:50:47.973Z,100869.63
2022-08-31T14:53:14.306Z,100863.91
2022-08-31T14:55:40.494Z,100865.31
2022-08-31T14:58:07.092Z,100860.94
2022-08-31T15:00:33.323Z,100867.38
2022-08-31T15:02:59.526Z,100861.50
2022-08-31T15:05:25.731Z,100854.78
2022-08-31T15:07:51.960Z,100860.09
2022-08-31T15:10:18.119Z,100859.00
2022-08-31T15:12:44.304Z,100866.00
2022-08-31T15:15:10.491Z,100861.38
2022-08-31T15:17:36.645Z,100861.47
2022-08-31T15:20:02.807Z,100866.69
2022-08-31T15:22:28.991Z,100860.72
2022-08-31T15:24:55.144Z,100856.94
2022-08-31T15:27:21.326Z,100865.38
2022-08-31T15:29:47.532Z,100864.78
2022-08-31T15:32:13.751Z,100859.06
2022-08-31T15:34:39.993Z,100866.25
2022-08-31T15:37:06.153Z,100857.91
2022-08-31T15:39:32.342Z,100854.00
2022-08-31T15:41:58.541Z,100854.72
2022-08-31T15:44:24.698Z,100860.63
2022-08-31T15:46:50.860Z,100852.47
2022-08-31T15:49:17.067Z,100850.28
2022-08-31T15:51:43.311Z,100845.44
2022-08-31T15:54:21.609Z,100837.13
2022-08-31T15:56:48.969Z,100830.53
2022-08-31T15:59:15.141Z,100830.16
2022-08-31T16:01:41.350Z,100840.22
2022-08-31T16:04:07.583Z,100834.91
2022-08-31T16:06:33.785Z,100828.34
2022-08-31T16:08:59.981Z,100825.09
2022-08-31T16:13:52.364Z,100819.69
2022-08-31T16:16:18.606Z,100815.03
2022-08-31T16:18:44.852Z,100811.22
2022-08-31T16:21:11.037Z,100805.28
2022-08-31T16:23:37.231Z,100802.06
2022-08-31T16:26:03.394Z,100809.19
2022-08-31T16:28:29.995Z,100802.41
2022-08-31T16:30:56.159Z,100798.78
2022-08-31T16:33:22.328Z,100792.31
2022-08-31T16:35:48.515Z,100795.66
2022-08-31T16:38:14.805Z,100802.13
2022-08-31T16:40:41.149Z,100800.72
2022-08-31T16:43:07.404Z,100801.53
2022-08-31T16:45:33.676Z,100805.78
2022-08-31T16:48:00.982Z,100797.25
2022-08-31T16:50:27.174Z,100792.59
2022-08-31T16:52:53.400Z,100792.88
2022-08-31T16:55:19.568Z,100801.59
2022-08-31T16:57:45.741Z,100796.25
2022-08-31T17:00:11.951Z,100794.47
2022-08-31T17:02:38.178Z,100792.63
2022-08-31T17:05:04.869Z,100793.19
2022-08-31T17:07:31.060Z,100796.97
2022-08-31T17:09:57.216Z,100800.00
2022-08-31T17:12:23.405Z,100802.25
2022-08-31T17:14:49.603Z,100801.13
2022-08-31T17:17:15.772Z,100798.31
2022-08-31T17:19:42.068Z,100797.88
2022-08-31T17:22:09.970Z,100804.56
2022-08-31T17:24:36.153Z,100811.00
2022-08-31T17:27:02.322Z,100808.19
2022-08-31T17:29:28.515Z,100810.56
2022-08-31T17:31:55.521Z,100814.59
2022-08-31T17:34:21.750Z,100815.97
2022-08-31T17:36:47.941Z,100807.59
2022-08-31T17:39:14.112Z,100815.13
2022-08-31T17:41:40.279Z,100817.09
2022-08-31T17:44:06.471Z,100818.44
2022-08-31T17:46:32.716Z,100830.53
2022-08-31T17:48:58.915Z,100825.06
2022-08-31T17:51:25.120Z,100830.50
2022-08-31T17:53:51.349Z,100830.47
2022-08-31T17:56:20.034Z,100835.47
2022-08-31T17:58:49.393Z,100836.81
2022-08-31T18:01:21.357Z,100832.63
2022-08-31T18:03:47.685Z,100837.47
2022-08-31T18:06:13.847Z,100843.56
2022-08-31T18:08:40.011Z,100837.41
2022-08-31T18:11:06.189Z,100845.75
2022-08-31T18:13:32.378Z,100849.63
2022-08-31T18:15:58.607Z,100847.34
2022-08-31T18:18:24.797Z,100854.00
2022-08-31T18:20:50.979Z,100850.81
2022-08-31T18:23:17.175Z,100848.97
2022-08-31T18:25:43.345Z,100852.59
2022-08-31T18:28:09.551Z,100854.28
2022-08-31T18:30:35.727Z,100858.03
2022-08-31T18:33:01.920Z,100863.94
2022-08-31T18:35:28.110Z,100861.78
2022-08-31T18:37:54.328Z,100864.97
2022-08-31T18:40:20.570Z,100857.75
2022-08-31T18:42:46.820Z,100872.91
2022-08-31T18:45:12.972Z,100874.72
2022-08-31T18:47:39.176Z,100882.53
2022-08-31T18:50:05.354Z,100884.09
2022-08-31T18:52:31.510Z,100886.75
2022-08-31T18:54:57.688Z,100877.25
2022-08-31T18:57:23.845Z,100880.16
2022-08-31T18:59:50.017Z,100875.09
2022-08-31T19:02:16.305Z,100881.34
2022-08-31T19:04:48.376Z,100878.25
2022-08-31T19:07:14.568Z,100875.72
2022-08-31T19:09:40.732Z,100875.00
2022-08-31T19:12:06.904Z,100876.81
2022-08-31T19:14:33.088Z,100881.41
2022-08-31T19:17:03.853Z,100878.28
2022-08-31T19:19:30.968Z,100877.69
2022-08-31T19:21:58.080Z,100878.28
2022-08-31T19:24:24.493Z,100881.09
2022-08-31T19:26:50.678Z,100872.31
2022-08-31T19:29:16.857Z,100871.13
2022-08-31T19:31:43.077Z,100869.88
2022-08-31T19:34:09.254Z,100870.75
2022-08-31T19:36:35.431Z,100878.34
2022-08-31T19:39:01.637Z,100878.91
2022-08-31T19:41:27.824Z,100882.31
2022-08-31T19:44:05.417Z,100876.53
2022-08-31T19:46:34.197Z,100883.25
2022-08-31T19:49:00.389Z,100882.03
2022-08-31T19:51:26.563Z,100878.28
2022-08-31T19:53:53.406Z,100883.78
2022-08-31T19:56:21.362Z,100879.44
2022-08-31T19:58:48.075Z,100879.41
2022-08-31T20:01:14.447Z,100886.44
2022-08-31T20:03:40.658Z,100879.19
2022-08-31T20:06:06.969Z,100886.00
2022-08-31T20:08:33.160Z,100882.03
2022-08-31T20:10:59.459Z,100888.50
2022-08-31T20:13:25.648Z,100882.06
2022-08-31T20:15:51.839Z,100882.66
2022-08-31T20:18:18.071Z,100880.56
2022-08-31T20:20:44.278Z,100882.28
2022-08-31T20:23:10.423Z,100878.72
2022-08-31T20:25:36.612Z,100873.22
2022-08-31T20:28:02.899Z,100873.53
2022-08-31T20:30:29.190Z,100870.25
2022-08-31T20:32:55.387Z,100867.84
2022-08-31T20:35:21.535Z,100864.34
2022-08-31T20:37:47.674Z,100875.88
2022-08-31T20:40:13.892Z,100868.69
2022-08-31T20:42:40.090Z,100872.38
2022-08-31T20:45:06.263Z,100877.03
2022-08-31T20:47:32.439Z,100880.25
2022-08-31T20:49:58.609Z,100872.03
2022-08-31T20:52:24.790Z,100882.25
2022-08-31T20:54:50.953Z,100887.13
2022-08-31T20:57:20.485Z,100893.59
2022-08-31T20:59:46.665Z,100896.03
2022-08-31T21:02:12.919Z,100891.78
2022-08-31T21:04:39.164Z,100887.88
2022-08-31T21:07:05.358Z,100890.97
2022-08-31T21:09:31.530Z,100892.63
2022-08-31T21:11:57.681Z,100885.91
2022-08-31T21:14:24.564Z,100885.41
2022-08-31T21:16:50.755Z,100886.38
2022-08-31T21:19:16.913Z,100887.06
2022-08-31T21:21:43.313Z,100883.38
2022-08-31T21:24:09.700Z,100888.25
2022-08-31T21:26:39.568Z,100881.56
2022-08-31T21:29:06.085Z,100879.44
2022-08-31T21:31:32.343Z,100885.72
2022-08-31T21:33:58.689Z,100888.25
2022-08-31T21:36:25.148Z,100890.78
2022-08-31T21:38:51.375Z,100879.78
2022-08-31T21:41:17.740Z,100890.34
2022-08-31T21:43:43.941Z,100885.50
2022-08-31T21:46:10.183Z,100879.50
2022-08-31T21:48:36.509Z,100877.63
2022-08-31T21:51:02.753Z,100889.66
2022-08-31T21:53:29.205Z,100881.59
2022-08-31T21:55:55.395Z,100889.59
2022-08-31T21:58:21.805Z,100891.88
2022-08-31T22:00:48.359Z,100887.75
2022-08-31T22:03:14.623Z,100887.16
2022-08-31T22:05:40.950Z,100888.00
2022-08-31T22:08:07.148Z,100888.34
2022-08-31T22:10:33.301Z,100887.56
2022-08-31T22:12:59.498Z,100895.78
2022-08-31T22:15:25.704Z,100894.91
2022-08-31T22:18:09.577Z,100901.19
2022-08-31T22:20:38.021Z,100890.59
2022-08-31T22:23:05.970Z,100894.34
2022-08-31T22:25:35.396Z,100895.84
2022-08-31T22:28:02.713Z,100900.78
2022-08-31T22:30:28.880Z,100898.28
2022-08-31T22:32:55.052Z,100891.97
2022-08-31T22:35:21.223Z,100908.47
2022-08-31T22:37:47.399Z,100910.69
2022-08-31T22:40:13.659Z,100904.25
2022-08-31T22:42:39.880Z,100905.84
2022-08-31T22:45:06.056Z,100909.53
2022-08-31T22:47:32.235Z,100909.84
2022-08-31T22:49:58.443Z,100917.00
2022-08-31T22:52:24.603Z,100906.56
2022-08-31T22:54:50.788Z,100913.22
2022-08-31T22:57:16.949Z,100904.88
2022-08-31T22:59:43.124Z,100903.09
2022-08-31T23:02:09.320Z,100905.28
2022-08-31T23:04:35.503Z,100908.78
2022-08-31T23:07:01.753Z,100899.19
2022-08-31T23:09:27.953Z,100910.88
2022-08-31T23:11:54.140Z,100906.34
2022-08-31T23:14:20.348Z,100902.22
2022-08-31T23:16:46.546Z,100898.44
2022-08-31T23:19:12.725Z,100898.22
2022-08-31T23:21:38.905Z,100894.50
2022-08-31T23:24:05.095Z,100893.13
2022-08-31T23:26:31.259Z,100889.22
2022-08-31T23:28:57.553Z,100888.56
2022-08-31T23:31:23.791Z,100890.81
2022-08-31T23:33:50.003Z,100886.09
2022-08-31T23:36:16.162Z,100885.78
2022-08-31T23:38:42.349Z,100897.91
2022-08-31T23:41:13.684Z,100887.25
2022-08-31T23:43:40.239Z,100895.59
2022-08-31T23:46:06.454Z,100886.72
2022-08-31T23:48:32.741Z,100881.22
2022-08-31T23:50:58.942Z,100878.66
2022-08-31T23:53:25.100Z,100873.38
2022-08-31T23:55:51.317Z,100875.75
2022-08-31T23:58:17.492Z,100873.41
